• Join FlightAware (Why Join?)
  • Login
  • US Flag 
05:53AM EDT


 

Airport Tracker/Info


-or-


 

Live Flight TrackerFlight Track Log ✈ LIA553 ✈ 18-May-2013 ✈ TIST / STT - TQPF / AXA

Flight Track Log - Related Links

Times and Time Zones

All times are in EDT time to prevent confusion due to time zone crossing. See the LIA553 flight status page for this flight to view local times or setup timezone preferences in your user account.

Time Position Orientation Groundspeed Altitude Reporting Facility
EDT Latitude Longitude Course Direction KTS MPH feet Rate Location/Type
02:19PM 18.3333 -64.9333 75° East 110 127 1,300  Level San Juan Center
02:20PM 18.3167 -64.9000 118° Southeast 140 161 3,100 1,800 Climbing San Juan Center
02:21PM 18.3167 -64.8667 90° East 140 161 5,000 1,620 Climbing San Juan Center
02:22PM 18.3167 -64.8167 90° East 150 173 6,400 1,440 Climbing San Juan Center
02:23PM 18.4301 -64.7909 66° East  Level FlightAware Approximate
02:23PM 18.3000 -64.7667 109° East 150 173 8,000  Level San Juan Center
02:24PM 18.4432 -64.7439 75° East  Level FlightAware Approximate
02:24PM 18.3000 -64.7167 90° East 180 207 9,000  Level San Juan Center
02:25PM 18.3000 -64.6500 90° East 220 253 9,000  Level San Juan Center
02:26PM 18.3000 -64.5833 90° East 250 288 9,000  Level San Juan Center
02:27PM 18.3000 -64.5167 90° East 250 288 9,000  Level San Juan Center
02:28PM 18.3000 -64.4333 90° East 250 288 9,000  Level San Juan Center
02:29PM 18.3000 -64.3667 90° East 250 288 9,000  Level San Juan Center
02:30PM 18.2833 -64.2833 102° East 260 299 9,000  Level San Juan Center
02:31PM 18.3000 -64.2167 75° East 250 288 9,000  Level San Juan Center
02:32PM 18.3167 -64.1333 78° East 250 288 9,000  Level San Juan Center
02:33PM 18.3333 -64.0667 75° East 250 288 9,000  Level San Juan Center
02:34PM 18.3333 -64.0000 90° East 250 288 9,000  Level San Juan Center
02:35PM 18.3500 -63.9167 78° East 250 288 9,000  Level San Juan Center
02:36PM 18.3667 -63.8500 75° East 250 288 9,000  Level San Juan Center
02:37PM 18.3667 -63.7833 90° East 250 288 9,000  Level San Juan Center
02:38PM 18.3500 -63.7167 105° East 250 288 9,000  Level San Juan Center